createdAt,value
2022-09-30T00:00:35.488Z,3.68
2022-09-30T00:03:02.237Z,3.65
2022-09-30T00:05:28.944Z,3.65
2022-09-30T00:07:55.590Z,3.62
2022-09-30T00:10:22.237Z,3.63
2022-09-30T00:12:48.964Z,3.61
2022-09-30T00:15:15.628Z,3.60
2022-09-30T00:17:42.550Z,3.66
2022-09-30T00:20:09.666Z,3.60
2022-09-30T00:22:36.725Z,3.61
2022-09-30T00:25:04.241Z,3.55
2022-09-30T00:27:30.864Z,3.57
2022-09-30T00:29:57.471Z,3.53
2022-09-30T00:32:24.063Z,3.44
2022-09-30T00:34:50.665Z,3.59
2022-09-30T00:37:17.258Z,3.66
2022-09-30T00:39:43.935Z,3.52
2022-09-30T00:42:14.838Z,3.44
2022-09-30T00:44:50.865Z,3.38
2022-09-30T00:47:50.384Z,3.41
2022-09-30T00:50:37.573Z,3.38
2022-09-30T00:53:35.066Z,3.42
2022-09-30T00:56:09.196Z,3.37
2022-09-30T00:58:53.066Z,3.40
2022-09-30T01:01:20.384Z,3.39
2022-09-30T01:04:00.366Z,3.37
2022-09-30T01:06:27.022Z,3.38
2022-09-30T01:08:54.126Z,3.39
2022-09-30T01:11:20.860Z,3.33
2022-09-30T01:13:49.543Z,3.35
2022-09-30T01:16:50.465Z,3.30
2022-09-30T01:19:29.329Z,3.28
2022-09-30T01:22:08.080Z,3.20
2022-09-30T01:24:46.278Z,3.14
2022-09-30T01:27:17.944Z,3.14
2022-09-30T01:30:06.291Z,3.15
2022-09-30T01:33:01.360Z,3.20
2022-09-30T01:35:54.051Z,3.14
2022-09-30T01:38:29.378Z,3.11
2022-09-30T01:41:06.787Z,3.09
2022-09-30T01:43:44.896Z,3.03
2022-09-30T01:46:33.268Z,3.03
2022-09-30T01:49:10.394Z,3.03
2022-09-30T01:51:53.493Z,3.00
2022-09-30T01:54:39.188Z,3.03
2022-09-30T01:57:11.483Z,2.92
2022-09-30T01:59:44.832Z,2.83
2022-09-30T02:02:29.396Z,2.77
2022-09-30T02:05:00.817Z,2.71
2022-09-30T02:07:33.279Z,2.76
2022-09-30T02:10:03.834Z,2.69
2022-09-30T02:12:35.265Z,2.67
2022-09-30T02:15:11.120Z,2.69
2022-09-30T02:17:43.234Z,2.78
2022-09-30T02:20:17.450Z,2.78
2022-09-30T02:22:47.003Z,2.76
2022-09-30T02:25:26.077Z,2.61
2022-09-30T02:27:59.147Z,2.53
2022-09-30T02:30:26.114Z,2.56
2022-09-30T02:32:56.779Z,2.65
2022-09-30T02:35:29.407Z,2.62
2022-09-30T02:38:03.543Z,2.56
2022-09-30T02:40:48.217Z,2.49
2022-09-30T02:43:14.958Z,2.47
2022-09-30T02:46:15.213Z,2.38
2022-09-30T02:49:03.757Z,2.50
2022-09-30T02:51:49.970Z,2.47
2022-09-30T02:54:27.347Z,2.34
2022-09-30T02:56:58.948Z,2.40
2022-09-30T02:59:26.694Z,2.42
2022-09-30T03:01:53.481Z,2.37
2022-09-30T03:04:23.366Z,2.30
2022-09-30T03:06:50.406Z,2.28
2022-09-30T03:09:17.129Z,2.24
2022-09-30T03:11:43.975Z,2.24
2022-09-30T03:14:32.173Z,2.30
2022-09-30T03:17:21.590Z,2.37
2022-09-30T03:19:59.001Z,2.32
2022-09-30T03:22:52.947Z,2.31
2022-09-30T03:25:40.598Z,2.21
2022-09-30T03:28:25.365Z,2.23
2022-09-30T03:31:00.473Z,2.22
2022-09-30T03:33:53.074Z,2.26
2022-09-30T03:36:41.473Z,2.14
2022-09-30T03:39:19.207Z,2.11
2022-09-30T03:41:53.128Z,2.07
2022-09-30T03:44:25.218Z,2.08
2022-09-30T03:47:04.159Z,2.13
2022-09-30T03:49:34.567Z,2.13
2022-09-30T03:52:05.510Z,2.07
2022-09-30T03:54:33.363Z,2.05
2022-09-30T03:57:03.399Z,2.00
2022-09-30T03:59:30.026Z,1.90
2022-09-30T04:01:57.566Z,1.92
2022-09-30T04:04:24.244Z,1.87
2022-09-30T04:06:51.051Z,1.87
2022-09-30T04:09:17.771Z,1.91
2022-09-30T04:11:44.403Z,2.03
2022-09-30T04:14:11.028Z,2.10
2022-09-30T04:16:37.708Z,1.97
2022-09-30T04:19:05.569Z,2.03
2022-09-30T04:21:32.208Z,1.95
2022-09-30T04:23:58.914Z,1.87
2022-09-30T04:26:25.686Z,1.89
2022-09-30T04:28:52.791Z,1.92
2022-09-30T04:31:21.405Z,1.91
2022-09-30T04:33:48.245Z,2.00
2022-09-30T04:36:14.866Z,2.00
2022-09-30T04:38:41.491Z,2.06
2022-09-30T04:41:09.834Z,2.13
2022-09-30T04:43:36.697Z,2.08
2022-09-30T04:46:03.320Z,1.93
2022-09-30T04:48:31.378Z,1.82
2022-09-30T04:51:00.007Z,1.83
2022-09-30T04:53:26.696Z,1.76
2022-09-30T04:55:59.720Z,1.74
2022-09-30T04:58:26.609Z,1.72
2022-09-30T05:01:00.323Z,1.77
2022-09-30T05:03:27.107Z,1.81
2022-09-30T05:05:53.678Z,1.81
2022-09-30T05:08:20.965Z,1.80
2022-09-30T05:10:57.259Z,1.76
2022-09-30T05:13:25.359Z,1.73
2022-09-30T05:15:52.260Z,1.74
2022-09-30T05:18:20.106Z,1.71
2022-09-30T05:20:49.734Z,1.76
2022-09-30T05:23:16.872Z,1.84
2022-09-30T05:25:43.466Z,1.89
2022-09-30T05:28:10.198Z,1.87
2022-09-30T05:30:36.797Z,1.89
2022-09-30T05:33:03.462Z,1.89
2022-09-30T05:35:30.133Z,1.92
2022-09-30T05:37:56.805Z,1.90
2022-09-30T05:40:23.433Z,1.88
2022-09-30T05:42:50.321Z,1.93
2022-09-30T05:45:16.952Z,1.96
2022-09-30T05:47:43.613Z,2.02
2022-09-30T05:50:10.235Z,2.00
2022-09-30T05:52:36.870Z,2.09
2022-09-30T05:55:03.656Z,2.11
2022-09-30T05:57:30.587Z,2.11
2022-09-30T05:59:58.032Z,2.06
2022-09-30T06:02:24.920Z,2.06
2022-09-30T06:04:51.587Z,2.08
2022-09-30T06:07:18.203Z,2.07
2022-09-30T06:09:46.138Z,2.08
2022-09-30T06:12:12.911Z,2.10
2022-09-30T06:14:39.495Z,2.19
2022-09-30T06:17:06.542Z,2.35
2022-09-30T06:19:33.189Z,2.42
2022-09-30T06:22:00.419Z,2.39
2022-09-30T06:24:27.055Z,2.42
2022-09-30T06:26:54.327Z,2.43
2022-09-30T06:29:20.995Z,2.51
2022-09-30T06:31:48.522Z,2.59
2022-09-30T06:34:15.173Z,2.63
2022-09-30T06:36:41.757Z,2.61
2022-09-30T06:39:12.907Z,2.68
2022-09-30T06:41:43.555Z,2.73
2022-09-30T06:44:10.868Z,2.77
2022-09-30T06:46:50.769Z,2.84
2022-09-30T06:49:20.069Z,2.95
2022-09-30T06:51:46.718Z,3.01
2022-09-30T06:54:13.539Z,3.12
2022-09-30T06:56:40.164Z,3.22
2022-09-30T06:59:07.123Z,3.37
2022-09-30T07:01:33.792Z,3.51
2022-09-30T07:04:00.858Z,3.64
2022-09-30T07:06:27.485Z,3.80
2022-09-30T07:08:54.615Z,4.07
2022-09-30T07:11:21.349Z,4.32
2022-09-30T07:13:49.166Z,4.52
2022-09-30T07:16:19.389Z,4.77
2022-09-30T07:18:46.308Z,5.03
2022-09-30T07:21:15.973Z,5.23
2022-09-30T07:23:47.267Z,5.45
2022-09-30T07:26:19.591Z,5.61
2022-09-30T07:28:46.791Z,5.75
2022-09-30T07:31:32.318Z,5.88
2022-09-30T07:33:59.534Z,6.02
2022-09-30T07:36:34.017Z,6.18
2022-09-30T07:39:05.823Z,6.31
2022-09-30T07:41:34.033Z,6.46
2022-09-30T07:44:00.793Z,6.63
2022-09-30T07:46:30.262Z,6.81
2022-09-30T07:49:00.758Z,6.90
2022-09-30T07:51:31.298Z,7.15
2022-09-30T07:54:00.194Z,7.30
2022-09-30T07:56:27.573Z,7.39
2022-09-30T07:59:00.178Z,7.63
2022-09-30T08:01:31.508Z,7.82
2022-09-30T08:04:00.877Z,7.83
2022-09-30T08:06:28.791Z,7.94
2022-09-30T08:08:56.771Z,8.00
2022-09-30T08:11:24.181Z,8.18
2022-09-30T08:13:52.547Z,8.32
2022-09-30T08:16:20.240Z,8.49
2022-09-30T08:18:47.378Z,8.60
2022-09-30T08:21:14.290Z,8.64
2022-09-30T08:23:41.107Z,8.78
2022-09-30T08:26:10.020Z,8.93
2022-09-30T08:28:38.363Z,8.91
2022-09-30T08:31:10.368Z,8.98
2022-09-30T08:33:37.610Z,9.05
2022-09-30T08:36:06.667Z,9.08
2022-09-30T08:38:33.561Z,9.22
2022-09-30T08:41:24.390Z,9.35
2022-09-30T08:44:25.198Z,9.54
2022-09-30T08:47:23.195Z,9.73
2022-09-30T08:50:00.274Z,10.04
2022-09-30T08:52:44.729Z,10.28
2022-09-30T08:55:21.988Z,10.61
2022-09-30T08:57:48.860Z,10.87
2022-09-30T09:00:17.316Z,11.22
2022-09-30T09:02:46.827Z,11.45
2022-09-30T09:05:20.563Z,11.80
2022-09-30T09:08:24.659Z,12.15
2022-09-30T09:11:09.000Z,12.42
2022-09-30T09:14:02.851Z,12.84
2022-09-30T09:16:35.354Z,13.12
2022-09-30T09:19:17.710Z,13.32
2022-09-30T09:21:53.499Z,13.53
2022-09-30T09:24:28.790Z,13.76
2022-09-30T09:26:57.431Z,14.04
2022-09-30T09:29:34.392Z,14.15
2022-09-30T09:32:03.353Z,14.34
2022-09-30T09:34:30.836Z,14.49
2022-09-30T09:37:04.289Z,14.58
2022-09-30T09:39:44.268Z,14.75
2022-09-30T09:42:34.062Z,14.97
2022-09-30T09:45:05.247Z,15.01
2022-09-30T09:47:32.798Z,15.08
2022-09-30T09:50:04.283Z,15.18
2022-09-30T09:53:11.166Z,15.49
2022-09-30T09:55:38.393Z,15.50
2022-09-30T09:58:07.012Z,15.53
2022-09-30T10:00:48.797Z,15.70
2022-09-30T10:03:20.327Z,15.88
2022-09-30T10:05:59.845Z,15.95
2022-09-30T10:08:26.681Z,15.98
2022-09-30T10:10:58.780Z,15.95
2022-09-30T10:13:41.098Z,16.08
2022-09-30T10:16:27.255Z,16.02
2022-09-30T10:18:54.176Z,15.90
2022-09-30T10:21:22.692Z,16.04
2022-09-30T10:23:49.408Z,16.02
2022-09-30T10:26:21.286Z,15.83
2022-09-30T10:29:01.778Z,15.84
2022-09-30T10:31:36.078Z,16.00
2022-09-30T10:34:11.378Z,16.16
2022-09-30T10:36:39.883Z,16.15
2022-09-30T10:39:08.791Z,16.33
2022-09-30T10:41:37.485Z,16.27
2022-09-30T10:44:07.763Z,16.23
2022-09-30T10:46:39.731Z,16.06
2022-09-30T10:49:10.654Z,16.07
2022-09-30T10:51:37.877Z,16.27
2022-09-30T10:54:05.429Z,16.51
2022-09-30T10:56:39.025Z,16.53
2022-09-30T10:59:21.682Z,16.68
2022-09-30T11:01:53.872Z,16.72
2022-09-30T11:04:37.648Z,16.62
2022-09-30T11:07:14.894Z,16.72
2022-09-30T11:09:50.385Z,16.58
2022-09-30T11:12:26.115Z,16.33
2022-09-30T11:15:00.017Z,16.31
2022-09-30T11:17:43.188Z,16.41
2022-09-30T11:20:20.275Z,16.59
2022-09-30T11:23:16.891Z,16.62
2022-09-30T11:25:51.266Z,16.36
2022-09-30T11:28:29.893Z,16.45
2022-09-30T11:31:15.416Z,16.61
2022-09-30T11:34:00.889Z,16.55
2022-09-30T11:36:59.409Z,16.66
2022-09-30T11:40:00.932Z,16.84
2022-09-30T11:42:46.851Z,16.70
2022-09-30T11:45:25.867Z,16.67
2022-09-30T11:48:01.427Z,16.79
2022-09-30T11:50:57.098Z,16.89
2022-09-30T11:53:44.962Z,16.81
2022-09-30T11:56:20.614Z,16.49
2022-09-30T11:58:51.896Z,16.35
2022-09-30T12:01:33.515Z,16.35
2022-09-30T12:04:05.356Z,16.55
2022-09-30T12:06:42.287Z,16.74
2022-09-30T12:09:25.725Z,16.82
2022-09-30T12:11:56.758Z,16.86
2022-09-30T12:14:28.554Z,16.95
2022-09-30T12:16:57.746Z,17.02
2022-09-30T12:19:29.818Z,16.95
2022-09-30T12:22:11.545Z,16.57
2022-09-30T12:24:40.771Z,16.49
2022-09-30T12:27:19.069Z,16.78
2022-09-30T12:30:20.605Z,16.80
2022-09-30T12:33:02.505Z,16.76
2022-09-30T12:35:38.213Z,16.52
2022-09-30T12:38:24.330Z,16.39
2022-09-30T12:41:12.870Z,16.30
2022-09-30T12:43:51.405Z,16.54
2022-09-30T12:47:06.208Z,16.49
2022-09-30T12:49:37.962Z,16.25
2022-09-30T12:52:07.190Z,16.12
2022-09-30T12:54:43.150Z,16.06
2022-09-30T12:57:09.963Z,15.93
2022-09-30T12:59:39.575Z,16.36
2022-09-30T13:02:08.016Z,16.39
2022-09-30T13:04:34.694Z,16.43
2022-09-30T13:07:01.210Z,16.35
2022-09-30T13:09:49.477Z,16.52
2022-09-30T13:12:17.450Z,16.87
2022-09-30T13:14:44.053Z,17.07
2022-09-30T13:17:10.544Z,17.15
2022-09-30T13:19:44.921Z,17.22
2022-09-30T13:22:30.189Z,17.20
2022-09-30T13:24:57.255Z,17.04
2022-09-30T13:27:42.685Z,16.77
2022-09-30T13:30:18.679Z,16.61
2022-09-30T13:32:52.147Z,16.61
2022-09-30T13:35:35.047Z,16.69
2022-09-30T13:38:13.781Z,16.52
2022-09-30T13:41:01.834Z,16.31
2022-09-30T13:43:42.371Z,16.10
2022-09-30T13:46:36.656Z,16.08
2022-09-30T13:49:14.332Z,16.25
2022-09-30T13:51:41.769Z,16.38
2022-09-30T13:54:32.749Z,16.55
2022-09-30T13:57:00.921Z,16.67
2022-09-30T13:59:48.607Z,16.91
2022-09-30T14:02:39.628Z,16.86
2022-09-30T14:05:35.205Z,16.84
2022-09-30T14:08:53.490Z,16.81
2022-09-30T14:11:33.002Z,16.76
2022-09-30T14:14:15.408Z,16.68
2022-09-30T14:17:05.422Z,16.73
2022-09-30T14:19:47.542Z,16.82
2022-09-30T14:22:14.968Z,16.78
2022-09-30T14:24:41.724Z,16.76
2022-09-30T14:27:31.452Z,16.71
2022-09-30T14:30:19.052Z,16.67
2022-09-30T14:32:53.445Z,16.42
2022-09-30T14:35:20.605Z,16.38
2022-09-30T14:38:02.698Z,16.33
2022-09-30T14:40:34.623Z,16.35
2022-09-30T14:43:03.274Z,16.27
2022-09-30T14:45:32.594Z,16.32
2022-09-30T14:48:09.031Z,16.39
2022-09-30T14:50:46.645Z,16.22
2022-09-30T14:53:34.169Z,16.12
2022-09-30T14:56:02.141Z,16.24
2022-09-30T14:58:30.796Z,16.20
2022-09-30T15:01:03.414Z,16.29
2022-09-30T15:03:30.506Z,16.22
2022-09-30T15:05:58.216Z,16.14
2022-09-30T15:08:25.158Z,15.90
2022-09-30T15:10:54.574Z,15.74
2022-09-30T15:13:23.883Z,15.56
2022-09-30T15:15:50.735Z,15.51
2022-09-30T15:18:36.427Z,15.55
2022-09-30T15:21:11.765Z,15.46
2022-09-30T15:23:41.318Z,15.40
2022-09-30T15:26:10.976Z,15.41
2022-09-30T15:28:37.734Z,15.44
2022-09-30T15:31:05.232Z,15.16
2022-09-30T15:33:32.460Z,15.03
2022-09-30T15:36:15.850Z,14.93
2022-09-30T15:38:49.664Z,14.83
2022-09-30T15:41:16.734Z,14.69
2022-09-30T15:43:51.820Z,14.57
2022-09-30T15:47:20.308Z,14.45
2022-09-30T15:49:50.121Z,14.22
2022-09-30T15:52:37.128Z,14.17
2022-09-30T15:55:36.110Z,14.06
2022-09-30T15:58:02.780Z,13.78
2022-09-30T16:00:35.061Z,13.48
2022-09-30T16:03:20.538Z,13.41
2022-09-30T16:05:51.831Z,13.22
2022-09-30T16:08:23.905Z,13.14
2022-09-30T16:10:52.745Z,12.93
2022-09-30T16:13:22.042Z,12.81
2022-09-30T16:15:48.790Z,12.72
2022-09-30T16:18:32.671Z,12.61
2022-09-30T16:21:05.832Z,12.45
2022-09-30T16:23:37.829Z,12.29
2022-09-30T16:26:20.865Z,12.23
2022-09-30T16:28:47.787Z,12.10
2022-09-30T16:31:16.183Z,11.96
2022-09-30T16:33:44.228Z,11.83
2022-09-30T16:36:11.853Z,11.75
2022-09-30T16:38:38.751Z,11.67
2022-09-30T16:41:05.735Z,11.61
2022-09-30T16:43:32.703Z,11.47
2022-09-30T16:46:02.430Z,11.40
2022-09-30T16:48:29.149Z,11.28
2022-09-30T16:50:58.999Z,11.06
2022-09-30T16:53:25.613Z,10.92
2022-09-30T16:55:52.272Z,10.88
2022-09-30T16:58:19.864Z,10.85
2022-09-30T17:00:46.633Z,10.77
2022-09-30T17:03:15.498Z,10.71
2022-09-30T17:05:43.322Z,10.69
2022-09-30T17:08:15.367Z,10.77
2022-09-30T17:10:43.058Z,10.66
2022-09-30T17:13:10.049Z,10.56
2022-09-30T17:15:37.423Z,10.47
2022-09-30T17:18:07.267Z,10.38
2022-09-30T17:20:35.020Z,10.18
2022-09-30T17:23:06.272Z,9.98
2022-09-30T17:25:34.177Z,9.91
2022-09-30T17:28:01.187Z,9.95
2022-09-30T17:30:27.931Z,9.86
2022-09-30T17:32:54.580Z,9.84
2022-09-30T17:35:22.566Z,9.85
2022-09-30T17:37:49.458Z,9.73
2022-09-30T17:40:35.267Z,9.68
2022-09-30T17:43:07.866Z,9.53
2022-09-30T17:45:35.289Z,9.37
2022-09-30T17:48:02.092Z,9.32
2022-09-30T17:50:28.947Z,9.31
2022-09-30T17:52:56.299Z,9.24
2022-09-30T17:55:22.986Z,9.23
2022-09-30T17:57:50.094Z,9.21
2022-09-30T18:00:16.788Z,9.19
2022-09-30T18:02:44.757Z,9.15
2022-09-30T18:05:11.749Z,9.04
2022-09-30T18:07:38.388Z,8.97
2022-09-30T18:10:05.381Z,8.93
2022-09-30T18:12:34.264Z,8.85
2022-09-30T18:15:01.117Z,8.87
2022-09-30T18:17:28.216Z,8.80
2022-09-30T18:19:55.029Z,8.65
2022-09-30T18:22:21.756Z,8.80
2022-09-30T18:25:07.293Z,8.72
2022-09-30T18:27:34.072Z,8.59
2022-09-30T18:30:04.452Z,8.57
2022-09-30T18:32:31.751Z,8.55
2022-09-30T18:34:58.559Z,8.55
2022-09-30T18:37:25.244Z,8.42
2022-09-30T18:39:52.053Z,8.34
2022-09-30T18:42:20.210Z,8.29
2022-09-30T18:44:47.714Z,8.25
2022-09-30T18:47:17.471Z,8.28
2022-09-30T18:49:44.557Z,8.15
2022-09-30T18:52:11.341Z,8.19
2022-09-30T18:54:38.094Z,8.04
2022-09-30T18:57:05.076Z,8.01
2022-09-30T18:59:31.726Z,7.94
2022-09-30T19:01:59.671Z,7.89
2022-09-30T19:04:26.378Z,7.90
2022-09-30T19:06:53.225Z,7.78
2022-09-30T19:09:19.847Z,7.73
2022-09-30T19:11:48.026Z,7.74
2022-09-30T19:14:15.538Z,7.66
2022-09-30T19:16:43.483Z,7.63
2022-09-30T19:19:10.638Z,7.57
2022-09-30T19:21:40.438Z,7.44
2022-09-30T19:24:08.840Z,7.40
2022-09-30T19:26:37.363Z,7.39
2022-09-30T19:29:05.521Z,7.35
2022-09-30T19:31:34.276Z,7.38
2022-09-30T19:34:02.048Z,7.38
2022-09-30T19:36:31.934Z,7.41
2022-09-30T19:39:11.523Z,7.42
2022-09-30T19:41:38.857Z,7.34
2022-09-30T19:44:06.535Z,7.23
2022-09-30T19:46:33.216Z,7.12
2022-09-30T19:49:00.061Z,7.18
2022-09-30T19:51:29.190Z,7.17
2022-09-30T19:54:04.467Z,7.12
2022-09-30T19:56:35.118Z,7.07
2022-09-30T19:59:02.105Z,7.03
2022-09-30T20:01:29.534Z,6.96
2022-09-30T20:04:00.289Z,7.00
2022-09-30T20:06:28.093Z,6.94
2022-09-30T20:08:59.939Z,6.87
2022-09-30T20:11:29.714Z,6.78
2022-09-30T20:14:15.214Z,6.78
2022-09-30T20:16:43.589Z,6.73
2022-09-30T20:19:11.384Z,6.74
2022-09-30T20:21:38.443Z,6.73
2022-09-30T20:24:05.540Z,6.74
2022-09-30T20:26:34.179Z,6.71
2022-09-30T20:29:00.986Z,6.62
2022-09-30T20:31:28.287Z,6.63
2022-09-30T20:33:56.367Z,6.59
2022-09-30T20:36:23.558Z,6.52
2022-09-30T20:38:51.116Z,6.49
2022-09-30T20:41:17.768Z,6.47
2022-09-30T20:43:49.196Z,6.44
2022-09-30T20:46:15.917Z,6.43
2022-09-30T20:48:42.618Z,6.34
2022-09-30T20:51:11.372Z,6.35
2022-09-30T20:53:39.776Z,6.28
2022-09-30T20:56:10.692Z,6.25
2022-09-30T20:58:37.946Z,6.20
2022-09-30T21:01:09.495Z,6.13
2022-09-30T21:03:37.764Z,6.16
2022-09-30T21:06:07.297Z,6.12
2022-09-30T21:08:39.071Z,6.19
2022-09-30T21:11:07.392Z,6.07
2022-09-30T21:13:35.301Z,6.01
2022-09-30T21:16:04.084Z,6.04
2022-09-30T21:18:31.266Z,6.02
2022-09-30T21:20:58.892Z,5.98
2022-09-30T21:23:26.627Z,5.95
2022-09-30T21:26:01.172Z,5.90
2022-09-30T21:28:28.607Z,5.90
2022-09-30T21:30:56.126Z,5.85
2022-09-30T21:33:24.282Z,5.83
2022-09-30T21:36:01.645Z,5.78
2022-09-30T21:38:30.060Z,5.69
2022-09-30T21:41:01.489Z,5.67
2022-09-30T21:43:32.457Z,5.64
2022-09-30T21:46:07.588Z,5.65
2022-09-30T21:48:35.624Z,5.55
2022-09-30T21:51:03.301Z,5.59
2022-09-30T21:53:29.944Z,5.52
2022-09-30T21:55:58.669Z,5.62
2022-09-30T21:58:26.016Z,5.64
2022-09-30T22:00:54.766Z,5.54
2022-09-30T22:03:22.891Z,5.53
2022-09-30T22:05:57.587Z,5.47
2022-09-30T22:08:24.614Z,5.43
2022-09-30T22:10:51.310Z,5.36
2022-09-30T22:13:18.128Z,5.40
2022-09-30T22:15:46.021Z,5.33
2022-09-30T22:18:17.375Z,5.31
2022-09-30T22:20:44.630Z,5.25
2022-09-30T22:23:11.472Z,5.24
2022-09-30T22:25:38.278Z,5.22
2022-09-30T22:28:05.132Z,5.20
2022-09-30T22:30:32.474Z,5.23
2022-09-30T22:33:17.682Z,5.18
2022-09-30T22:36:03.000Z,5.15
2022-09-30T22:38:29.971Z,5.15
2022-09-30T22:40:59.322Z,5.14
2022-09-30T22:43:26.746Z,5.12
2022-09-30T22:46:08.140Z,5.11
2022-09-30T22:48:35.052Z,5.04
2022-09-30T22:51:01.967Z,4.98
2022-09-30T22:53:29.195Z,5.02
2022-09-30T22:55:55.974Z,4.89
2022-09-30T22:58:24.434Z,4.95
2022-09-30T23:00:58.699Z,4.92
2022-09-30T23:03:25.556Z,4.85
2022-09-30T23:05:53.321Z,4.85
2022-09-30T23:08:19.978Z,4.76
2022-09-30T23:10:50.264Z,4.77
2022-09-30T23:13:20.271Z,4.73
2022-09-30T23:15:47.744Z,4.67
2022-09-30T23:18:17.632Z,4.72
2022-09-30T23:20:56.761Z,4.73
2022-09-30T23:23:23.954Z,4.74
2022-09-30T23:26:08.157Z,4.65
2022-09-30T23:28:34.919Z,4.60
2022-09-30T23:31:08.016Z,4.62
2022-09-30T23:33:46.614Z,4.65
2022-09-30T23:36:29.311Z,4.68
2022-09-30T23:39:20.884Z,4.58
2022-09-30T23:41:48.863Z,4.56
2022-09-30T23:44:18.683Z,4.62
2022-09-30T23:47:05.088Z,4.53
2022-09-30T23:49:35.431Z,4.46
2022-09-30T23:52:10.545Z,4.47
2022-09-30T23:54:42.125Z,4.44
2022-09-30T23:57:10.489Z,4.47
2022-09-30T23:59:37.906Z,4.48
